sensor_id;sensor_type;location;lat;lon;timestamp;pressure;altitude;pressure_sealevel;temperature;humidity
5053;BME280;2545;50.892;5.740;2023-03-31T00:00:45;56298.38;;;-142.21;100.00
5053;BME280;2545;50.892;5.740;2023-03-31T00:03:12;56282.69;;;-142.21;100.00
5053;BME280;2545;50.892;5.740;2023-03-31T00:05:38;56282.69;;;-142.21;100.00
5053;BME280;2545;50.892;5.740;2023-03-31T00:08:04;56296.41;;;-142.21;100.00
5053;BME280;2545;50.892;5.740;2023-03-31T00:10:31;56290.53;;;-142.21;100.00
5053;BME280;2545;50.892;5.740;2023-03-31T00:12:58;56270.91;;;-142.21;100.00
5053;BME280;2545;50.892;5.740;2023-03-31T00:15:23;56278.78;;;-142.21;100.00
5053;BME280;2545;50.892;5.740;2023-03-31T00:17:49;56302.28;;;-142.21;100.00
5053;BME280;2545;50.892;5.740;2023-03-31T00:20:14;56314.06;;;-142.21;100.00
5053;BME280;2545;50.892;5.740;2023-03-31T00:22:40;56302.28;;;-142.21;100.00
5053;BME280;2545;50.892;5.740;2023-03-31T00:25:15;56316.03;;;-142.21;100.00
5053;BME280;2545;50.892;5.740;2023-03-31T00:27:44;56302.28;;;-142.21;100.00
5053;BME280;2545;50.892;5.740;2023-03-31T00:30:11;56325.84;;;-142.21;100.00
5053;BME280;2545;50.892;5.740;2023-03-31T00:32:37;56335.63;;;-142.21;100.00
5053;BME280;2545;50.892;5.740;2023-03-31T00:35:02;56290.53;;;-142.21;100.00
5053;BME280;2545;50.892;5.740;2023-03-31T00:37:28;56300.34;;;-142.21;100.00
5053;BME280;2545;50.892;5.740;2023-03-31T00:39:54;56288.56;;;-142.21;100.00
5053;BME280;2545;50.892;5.740;2023-03-31T00:42:20;56268.97;;;-142.21;100.00
5053;BME280;2545;50.892;5.740;2023-03-31T00:47:44;56308.19;;;-142.21;100.00
5053;BME280;2545;50.892;5.740;2023-03-31T00:50:21;56286.63;;;-142.21;100.00
5053;BME280;2545;50.892;5.740;2023-03-31T00:52:52;56312.09;;;-142.21;100.00
5053;BME280;2545;50.892;5.740;2023-03-31T00:55:22;56321.91;;;-142.21;100.00
5053;BME280;2545;50.892;5.740;2023-03-31T00:57:50;56298.38;;;-142.21;100.00
5053;BME280;2545;50.892;5.740;2023-03-31T01:00:18;56292.50;;;-142.21;100.00
5053;BME280;2545;50.892;5.740;2023-03-31T01:02:46;56306.22;;;-142.21;100.00
5053;BME280;2545;50.892;5.740;2023-03-31T01:05:42;56308.19;;;-142.21;100.00
5053;BME280;2545;50.892;5.740;2023-03-31T01:08:09;56280.72;;;-142.21;100.00
5053;BME280;2545;50.892;5.740;2023-03-31T01:10:39;56286.63;;;-142.21;100.00
5053;BME280;2545;50.892;5.740;2023-03-31T01:13:08;56310.13;;;-142.21;100.00
5053;BME280;2545;50.892;5.740;2023-03-31T01:15:35;56302.28;;;-142.21;100.00
5053;BME280;2545;50.892;5.740;2023-03-31T01:18:02;56280.72;;;-142.21;100.00
5053;BME280;2545;50.892;5.740;2023-03-31T01:20:36;56284.66;;;-142.21;100.00
5053;BME280;2545;50.892;5.740;2023-03-31T01:32:14;56296.41;;;-142.21;100.00
5053;BME280;2545;50.892;5.740;2023-03-31T01:40:26;56290.53;;;-142.21;100.00
5053;BME280;2545;50.892;5.740;2023-03-31T01:46:00;56323.88;;;-142.21;100.00
5053;BME280;2545;50.892;5.740;2023-03-31T01:48:42;56302.28;;;-142.21;100.00
5053;BME280;2545;50.892;5.740;2023-03-31T01:51:16;56339.56;;;-142.21;100.00
5053;BME280;2545;50.892;5.740;2023-03-31T01:53:59;56304.25;;;-142.21;100.00
5053;BME280;2545;50.892;5.740;2023-03-31T01:56:32;56284.66;;;-142.21;100.00
5053;BME280;2545;50.892;5.740;2023-03-31T01:59:02;56308.19;;;-142.21;100.00
5053;BME280;2545;50.892;5.740;2023-03-31T02:01:51;56300.34;;;-142.21;100.00
5053;BME280;2545;50.892;5.740;2023-03-31T02:04:22;56288.56;;;-142.21;100.00
5053;BME280;2545;50.892;5.740;2023-03-31T02:06:57;56286.63;;;-142.21;100.00
5053;BME280;2545;50.892;5.740;2023-03-31T02:09:27;56306.22;;;-142.21;100.00
5053;BME280;2545;50.892;5.740;2023-03-31T02:11:55;56286.63;;;-142.21;100.00
5053;BME280;2545;50.892;5.740;2023-03-31T02:14:25;56278.78;;;-142.21;100.00
5053;BME280;2545;50.892;5.740;2023-03-31T02:16:55;56333.69;;;-142.21;100.00
5053;BME280;2545;50.892;5.740;2023-03-31T02:19:24;56302.28;;;-142.21;100.00
5053;BME280;2545;50.892;5.740;2023-03-31T02:21:50;56337.59;;;-142.21;100.00
5053;BME280;2545;50.892;5.740;2023-03-31T02:24:20;56270.91;;;-142.21;100.00
5053;BME280;2545;50.892;5.740;2023-03-31T02:26:52;56325.84;;;-142.21;100.00
5053;BME280;2545;50.892;5.740;2023-03-31T02:29:19;56300.34;;;-142.21;100.00
5053;BME280;2545;50.892;5.740;2023-03-31T02:32:03;56257.19;;;-142.21;100.00
5053;BME280;2545;50.892;5.740;2023-03-31T02:34:33;56335.63;;;-142.21;100.00
5053;BME280;2545;50.892;5.740;2023-03-31T02:36:58;56325.84;;;-142.21;100.00
5053;BME280;2545;50.892;5.740;2023-03-31T02:39:30;56280.72;;;-142.21;100.00
5053;BME280;2545;50.892;5.740;2023-03-31T02:41:57;56253.28;;;-142.21;100.00
5053;BME280;2545;50.892;5.740;2023-03-31T02:44:23;56347.41;;;-142.21;100.00
5053;BME280;2545;50.892;5.740;2023-03-31T02:46:48;56319.94;;;-142.21;100.00
5053;BME280;2545;50.892;5.740;2023-03-31T02:49:15;56280.72;;;-142.21;100.00
5053;BME280;2545;50.892;5.740;2023-03-31T02:57:25;56292.50;;;-142.21;100.00
5053;BME280;2545;50.892;5.740;2023-03-31T03:00:19;56282.69;;;-142.21;100.00
5053;BME280;2545;50.892;5.740;2023-03-31T03:06:28;56276.81;;;-142.21;100.00
5053;BME280;2545;50.892;5.740;2023-03-31T03:09:00;56276.81;;;-142.21;100.00
5053;BME280;2545;50.892;5.740;2023-03-31T03:16:53;56308.19;;;-142.21;100.00
5053;BME280;2545;50.892;5.740;2023-03-31T03:19:22;56276.81;;;-142.21;100.00
5053;BME280;2545;50.892;5.740;2023-03-31T03:21:48;56298.38;;;-142.21;100.00
5053;BME280;2545;50.892;5.740;2023-03-31T03:24:17;56288.56;;;-142.21;100.00
5053;BME280;2545;50.892;5.740;2023-03-31T03:26:43;56310.13;;;-142.21;100.00
5053;BME280;2545;50.892;5.740;2023-03-31T03:29:12;56276.81;;;-142.21;100.00
5053;BME280;2545;50.892;5.740;2023-03-31T03:31:39;56280.72;;;-142.21;100.00
5053;BME280;2545;50.892;5.740;2023-03-31T03:34:05;56278.78;;;-142.21;100.00
5053;BME280;2545;50.892;5.740;2023-03-31T03:36:31;56304.25;;;-142.21;100.00
5053;BME280;2545;50.892;5.740;2023-03-31T03:38:57;56329.75;;;-142.21;100.00
5053;BME280;2545;50.892;5.740;2023-03-31T03:41:22;56298.38;;;-142.21;100.00
5053;BME280;2545;50.892;5.740;2023-03-31T03:43:47;56272.88;;;-142.21;100.00
5053;BME280;2545;50.892;5.740;2023-03-31T03:46:13;56292.50;;;-142.21;100.00
5053;BME280;2545;50.892;5.740;2023-03-31T03:48:38;56265.03;;;-142.21;100.00
5053;BME280;2545;50.892;5.740;2023-03-31T03:51:03;56316.03;;;-142.21;100.00
5053;BME280;2545;50.892;5.740;2023-03-31T03:53:29;56282.69;;;-142.21;100.00
5053;BME280;2545;50.892;5.740;2023-03-31T03:55:54;56302.28;;;-142.21;100.00
5053;BME280;2545;50.892;5.740;2023-03-31T03:58:20;56298.38;;;-142.21;100.00
5053;BME280;2545;50.892;5.740;2023-03-31T04:00:45;56276.81;;;-142.21;100.00
5053;BME280;2545;50.892;5.740;2023-03-31T04:03:12;56302.28;;;-142.21;100.00
5053;BME280;2545;50.892;5.740;2023-03-31T04:05:39;56314.06;;;-142.21;100.00
5053;BME280;2545;50.892;5.740;2023-03-31T04:08:04;56319.94;;;-142.21;100.00
5053;BME280;2545;50.892;5.740;2023-03-31T04:10:32;56314.06;;;-142.21;100.00
5053;BME280;2545;50.892;5.740;2023-03-31T04:12:57;56286.63;;;-142.21;100.00
5053;BME280;2545;50.892;5.740;2023-03-31T04:15:24;56333.69;;;-142.21;100.00
5053;BME280;2545;50.892;5.740;2023-03-31T04:17:49;56257.19;;;-142.21;100.00
5053;BME280;2545;50.892;5.740;2023-03-31T04:20:19;56304.25;;;-142.21;100.00
5053;BME280;2545;50.892;5.740;2023-03-31T04:22:45;56265.03;;;-142.21;100.00
5053;BME280;2545;50.892;5.740;2023-03-31T04:25:15;56292.50;;;-142.21;100.00
5053;BME280;2545;50.892;5.740;2023-03-31T04:27:45;56298.38;;;-142.21;100.00
5053;BME280;2545;50.892;5.740;2023-03-31T04:30:15;56296.41;;;-142.21;100.00
5053;BME280;2545;50.892;5.740;2023-03-31T04:33:04;56321.91;;;-142.21;100.00
5053;BME280;2545;50.892;5.740;2023-03-31T04:35:31;56319.94;;;-142.21;100.00
5053;BME280;2545;50.892;5.740;2023-03-31T04:38:13;56310.13;;;-142.21;100.00
5053;BME280;2545;50.892;5.740;2023-03-31T04:40:43;56257.19;;;-142.21;100.00
5053;BME280;2545;50.892;5.740;2023-03-31T04:43:08;56286.63;;;-142.21;100.00
5053;BME280;2545;50.892;5.740;2023-03-31T04:45:34;56296.41;;;-142.21;100.00
5053;BME280;2545;50.892;5.740;2023-03-31T04:47:59;56331.72;;;-142.21;100.00
5053;BME280;2545;50.892;5.740;2023-03-31T04:50:25;56274.84;;;-142.21;100.00
5053;BME280;2545;50.892;5.740;2023-03-31T04:52:50;56317.97;;;-142.21;100.00
5053;BME280;2545;50.892;5.740;2023-03-31T04:55:15;56272.88;;;-142.21;100.00
5053;BME280;2545;50.892;5.740;2023-03-31T04:57:41;56312.09;;;-142.21;100.00
5053;BME280;2545;50.892;5.740;2023-03-31T05:00:06;56306.22;;;-142.21;100.00
5053;BME280;2545;50.892;5.740;2023-03-31T05:02:32;56280.72;;;-142.21;100.00
5053;BME280;2545;50.892;5.740;2023-03-31T05:04:58;56272.88;;;-142.21;100.00
5053;BME280;2545;50.892;5.740;2023-03-31T05:07:23;56343.47;;;-142.21;100.00
5053;BME280;2545;50.892;5.740;2023-03-31T05:09:48;56298.38;;;-142.21;100.00
5053;BME280;2545;50.892;5.740;2023-03-31T05:12:14;56284.66;;;-142.21;100.00
5053;BME280;2545;50.892;5.740;2023-03-31T05:14:39;56270.91;;;-142.21;100.00
5053;BME280;2545;50.892;5.740;2023-03-31T05:17:04;56280.72;;;-142.21;100.00
5053;BME280;2545;50.892;5.740;2023-03-31T05:19:30;56308.19;;;-142.21;100.00
5053;BME280;2545;50.892;5.740;2023-03-31T05:21:55;56304.25;;;-142.21;100.00
5053;BME280;2545;50.892;5.740;2023-03-31T05:24:21;56292.50;;;-142.21;100.00
5053;BME280;2545;50.892;5.740;2023-03-31T05:26:46;56276.81;;;-142.21;100.00
5053;BME280;2545;50.892;5.740;2023-03-31T05:29:19;56304.25;;;-142.21;100.00
5053;BME280;2545;50.892;5.740;2023-03-31T05:31:44;56251.31;;;-142.21;100.00
5053;BME280;2545;50.892;5.740;2023-03-31T05:34:10;56294.47;;;-142.21;100.00
5053;BME280;2545;50.892;5.740;2023-03-31T05:36:35;56312.09;;;-142.21;100.00
5053;BME280;2545;50.892;5.740;2023-03-31T05:39:05;56304.25;;;-142.21;100.00
5053;BME280;2545;50.892;5.740;2023-03-31T05:41:32;56288.56;;;-142.21;100.00
5053;BME280;2545;50.892;5.740;2023-03-31T05:43:57;56296.41;;;-142.21;100.00
5053;BME280;2545;50.892;5.740;2023-03-31T05:46:23;56290.53;;;-142.21;100.00
5053;BME280;2545;50.892;5.740;2023-03-31T05:48:49;56323.88;;;-142.21;100.00
5053;BME280;2545;50.892;5.740;2023-03-31T05:51:14;56308.19;;;-142.21;100.00
5053;BME280;2545;50.892;5.740;2023-03-31T05:53:39;56296.41;;;-142.21;100.00
5053;BME280;2545;50.892;5.740;2023-03-31T05:56:06;56268.97;;;-142.21;100.00
5053;BME280;2545;50.892;5.740;2023-03-31T05:58:35;56282.69;;;-142.21;100.00
5053;BME280;2545;50.892;5.740;2023-03-31T06:01:13;56278.78;;;-142.21;100.00
5053;BME280;2545;50.892;5.740;2023-03-31T06:03:40;56298.38;;;-142.21;100.00
5053;BME280;2545;50.892;5.740;2023-03-31T06:06:06;56298.38;;;-142.21;100.00
5053;BME280;2545;50.892;5.740;2023-03-31T06:08:33;56300.34;;;-142.21;100.00
5053;BME280;2545;50.892;5.740;2023-03-31T06:10:58;56316.03;;;-142.21;100.00
5053;BME280;2545;50.892;5.740;2023-03-31T06:13:24;56288.56;;;-142.21;100.00
5053;BME280;2545;50.892;5.740;2023-03-31T06:15:56;56316.03;;;-142.21;100.00
5053;BME280;2545;50.892;5.740;2023-03-31T06:18:22;56298.38;;;-142.21;100.00
5053;BME280;2545;50.892;5.740;2023-03-31T06:20:47;56292.50;;;-142.21;100.00
5053;BME280;2545;50.892;5.740;2023-03-31T06:23:13;56331.72;;;-142.21;100.00
5053;BME280;2545;50.892;5.740;2023-03-31T06:25:38;56261.13;;;-142.21;100.00
5053;BME280;2545;50.892;5.740;2023-03-31T06:28:04;56316.03;;;-142.21;100.00
5053;BME280;2545;50.892;5.740;2023-03-31T06:30:31;56337.59;;;-142.21;100.00
5053;BME280;2545;50.892;5.740;2023-03-31T06:32:56;56284.66;;;-142.21;100.00
5053;BME280;2545;50.892;5.740;2023-03-31T06:35:22;56296.41;;;-142.21;100.00
5053;BME280;2545;50.892;5.740;2023-03-31T06:37:47;56300.34;;;-142.21;100.00
5053;BME280;2545;50.892;5.740;2023-03-31T06:40:12;56243.47;;;-142.21;100.00
5053;BME280;2545;50.892;5.740;2023-03-31T06:42:38;56286.63;;;-142.21;100.00
5053;BME280;2545;50.892;5.740;2023-03-31T06:45:03;56267.00;;;-142.21;100.00
5053;BME280;2545;50.892;5.740;2023-03-31T06:47:29;56308.19;;;-142.21;100.00
5053;BME280;2545;50.892;5.740;2023-03-31T06:49:55;56312.09;;;-142.21;100.00
5053;BME280;2545;50.892;5.740;2023-03-31T06:52:20;56292.50;;;-142.21;100.00
5053;BME280;2545;50.892;5.740;2023-03-31T06:54:45;56294.47;;;-142.21;100.00
5053;BME280;2545;50.892;5.740;2023-03-31T06:57:11;56288.56;;;-142.21;100.00
5053;BME280;2545;50.892;5.740;2023-03-31T06:59:37;56270.91;;;-142.21;100.00
5053;BME280;2545;50.892;5.740;2023-03-31T07:02:02;56276.81;;;-142.21;100.00
5053;BME280;2545;50.892;5.740;2023-03-31T07:04:28;56294.47;;;-142.21;100.00
5053;BME280;2545;50.892;5.740;2023-03-31T07:06:53;56286.63;;;-142.21;100.00
5053;BME280;2545;50.892;5.740;2023-03-31T07:09:18;56316.03;;;-142.21;100.00
5053;BME280;2545;50.892;5.740;2023-03-31T07:11:47;56290.53;;;-142.21;100.00
5053;BME280;2545;50.892;5.740;2023-03-31T07:14:12;56294.47;;;-142.21;100.00
5053;BME280;2545;50.892;5.740;2023-03-31T07:16:37;56268.97;;;-142.21;99.18
5053;BME280;2545;50.892;5.740;2023-03-31T07:19:03;56270.91;;;-142.21;97.18
5053;BME280;2545;50.892;5.740;2023-03-31T07:21:30;56284.66;;;-142.21;96.35
5053;BME280;2545;50.892;5.740;2023-03-31T07:23:56;56290.53;;;-142.21;93.85
5053;BME280;2545;50.892;5.740;2023-03-31T07:26:21;56282.69;;;-142.21;93.91
5053;BME280;2545;50.892;5.740;2023-03-31T07:28:46;56272.88;;;-142.21;93.64
5053;BME280;2545;50.892;5.740;2023-03-31T07:31:13;56300.34;;;-142.21;92.27
5053;BME280;2545;50.892;5.740;2023-03-31T07:33:39;56294.47;;;-142.21;90.85
5053;BME280;2545;50.892;5.740;2023-03-31T07:36:05;56292.50;;;-142.21;91.91
5053;BME280;2545;50.892;5.740;2023-03-31T07:38:30;56284.66;;;-142.21;90.15
5053;BME280;2545;50.892;5.740;2023-03-31T07:40:55;56268.97;;;-142.21;90.23
5053;BME280;2545;50.892;5.740;2023-03-31T07:43:20;56310.13;;;-142.21;87.93
5053;BME280;2545;50.892;5.740;2023-03-31T07:45:46;56268.97;;;-142.21;86.81
5053;BME280;2545;50.892;5.740;2023-03-31T07:48:11;56306.22;;;-142.21;85.51
5053;BME280;2545;50.892;5.740;2023-03-31T07:50:37;56278.78;;;-142.21;86.24
5053;BME280;2545;50.892;5.740;2023-03-31T07:53:02;56319.94;;;-142.21;84.09
5053;BME280;2545;50.892;5.740;2023-03-31T07:55:28;56259.16;;;-142.21;81.41
5053;BME280;2545;50.892;5.740;2023-03-31T07:57:53;56268.97;;;-142.21;82.94
5053;BME280;2545;50.892;5.740;2023-03-31T08:00:19;56278.78;;;-142.21;80.07
5053;BME280;2545;50.892;5.740;2023-03-31T08:02:44;56251.31;;;-142.21;80.46
5053;BME280;2545;50.892;5.740;2023-03-31T08:05:11;56272.88;;;-142.21;79.59
5053;BME280;2545;50.892;5.740;2023-03-31T08:07:38;56241.50;;;-142.21;79.18
5053;BME280;2545;50.892;5.740;2023-03-31T08:10:08;56304.25;;;-142.21;77.31
5053;BME280;2545;50.892;5.740;2023-03-31T08:12:33;56284.66;;;-142.21;78.48
5053;BME280;2545;50.892;5.740;2023-03-31T08:14:59;56274.84;;;-142.21;76.70
5053;BME280;2545;50.892;5.740;2023-03-31T08:17:24;56267.00;;;-142.21;76.11
5053;BME280;2545;50.892;5.740;2023-03-31T08:19:49;56255.22;;;-142.21;74.79
5053;BME280;2545;50.892;5.740;2023-03-31T08:22:16;56304.25;;;-142.21;75.09
5053;BME280;2545;50.892;5.740;2023-03-31T08:24:41;56261.13;;;-142.21;73.90
5053;BME280;2545;50.892;5.740;2023-03-31T08:27:07;56288.56;;;-142.21;74.07
5053;BME280;2545;50.892;5.740;2023-03-31T08:29:32;56231.72;;;-142.21;72.99
5053;BME280;2545;50.892;5.740;2023-03-31T08:31:57;56241.50;;;-142.21;72.55
5053;BME280;2545;50.892;5.740;2023-03-31T08:34:23;56265.03;;;-142.21;72.22
5053;BME280;2545;50.892;5.740;2023-03-31T08:36:49;56253.28;;;-142.21;71.84
5053;BME280;2545;50.892;5.740;2023-03-31T08:39:15;56286.63;;;-142.21;71.19
5053;BME280;2545;50.892;5.740;2023-03-31T08:44:30;56225.81;;;-142.21;72.61
5053;BME280;2545;50.892;5.740;2023-03-31T08:46:58;56259.16;;;-142.21;74.67
5053;BME280;2545;50.892;5.740;2023-03-31T08:49:27;56241.50;;;-142.21;78.29
5053;BME280;2545;50.892;5.740;2023-03-31T08:51:57;56253.28;;;-142.21;75.34
5053;BME280;2545;50.892;5.740;2023-03-31T08:54:28;56259.16;;;-142.21;76.03
5053;BME280;2545;50.892;5.740;2023-03-31T08:56:56;56280.72;;;-142.21;73.68
5053;BME280;2545;50.892;5.740;2023-03-31T08:59:33;56274.84;;;-142.21;71.28
5053;BME280;2545;50.892;5.740;2023-03-31T09:05:04;56270.91;;;-142.21;70.12
5053;BME280;2545;50.892;5.740;2023-03-31T09:07:41;56284.66;;;-142.21;68.95
5053;BME280;2545;50.892;5.740;2023-03-31T09:15:27;56243.47;;;-142.21;66.61
5053;BME280;2545;50.892;5.740;2023-03-31T09:17:54;56257.19;;;-142.21;65.84
5053;BME280;2545;50.892;5.740;2023-03-31T09:20:26;56255.22;;;-142.21;65.36
5053;BME280;2545;50.892;5.740;2023-03-31T09:23:09;56257.19;;;-142.21;63.95
5053;BME280;2545;50.892;5.740;2023-03-31T09:25:39;56257.19;;;-142.21;63.18
5053;BME280;2545;50.892;5.740;2023-03-31T09:28:28;56255.22;;;-142.21;63.81
5053;BME280;2545;50.892;5.740;2023-03-31T09:30:55;56263.06;;;-142.21;63.30
5053;BME280;2545;50.892;5.740;2023-03-31T09:33:29;56253.28;;;-142.21;64.11
5053;BME280;2545;50.892;5.740;2023-03-31T09:35:58;56259.16;;;-142.21;64.06
5053;BME280;2545;50.892;5.740;2023-03-31T09:38:24;56284.66;;;-142.21;63.26
5053;BME280;2545;50.892;5.740;2023-03-31T09:40:55;56278.78;;;-142.21;62.53
5053;BME280;2545;50.892;5.740;2023-03-31T09:43:23;56237.59;;;-142.21;62.66
5053;BME280;2545;50.892;5.740;2023-03-31T09:45:49;56217.97;;;-142.21;64.89
5053;BME280;2545;50.892;5.740;2023-03-31T09:48:18;56267.00;;;-142.21;69.66
5053;BME280;2545;50.892;5.740;2023-03-31T09:50:48;56282.69;;;-142.21;89.16
5053;BME280;2545;50.892;5.740;2023-03-31T09:53:22;56298.38;;;-142.21;100.00
5053;BME280;2545;50.892;5.740;2023-03-31T09:55:52;56267.00;;;-142.21;100.00
5053;BME280;2545;50.892;5.740;2023-03-31T09:58:17;56296.41;;;-142.21;100.00
5053;BME280;2545;50.892;5.740;2023-03-31T10:00:59;56261.13;;;-142.21;98.62
5053;BME280;2545;50.892;5.740;2023-03-31T10:03:26;56284.66;;;-142.21;99.23
5053;BME280;2545;50.892;5.740;2023-03-31T10:05:55;56274.84;;;-142.21;94.66
5053;BME280;2545;50.892;5.740;2023-03-31T10:08:33;56270.91;;;-142.21;93.10
5053;BME280;2545;50.892;5.740;2023-03-31T10:16:12;56272.88;;;-142.21;99.76
5053;BME280;2545;50.892;5.740;2023-03-31T10:18:40;56308.19;;;-142.21;94.96
5053;BME280;2545;50.892;5.740;2023-03-31T10:21:14;56272.88;;;-142.21;95.65
5053;BME280;2545;50.892;5.740;2023-03-31T10:23:45;56312.09;;;-142.21;97.58
5053;BME280;2545;50.892;5.740;2023-03-31T10:26:16;56308.19;;;-142.21;98.16
5053;BME280;2545;50.892;5.740;2023-03-31T10:28:42;56249.34;;;-142.21;90.95
5053;BME280;2545;50.892;5.740;2023-03-31T10:31:08;56286.63;;;-142.21;91.77
5053;BME280;2545;50.892;5.740;2023-03-31T10:33:43;56288.56;;;-142.21;97.66
5053;BME280;2545;50.892;5.740;2023-03-31T10:36:31;56276.81;;;-142.21;93.48
5053;BME280;2545;50.892;5.740;2023-03-31T10:39:05;56284.66;;;-142.21;90.04
5053;BME280;2545;50.892;5.740;2023-03-31T10:41:32;56280.72;;;-142.21;88.87
5053;BME280;2545;50.892;5.740;2023-03-31T10:47:23;56282.69;;;-142.21;82.08
5053;BME280;2545;50.892;5.740;2023-03-31T10:49:57;56265.03;;;-142.21;83.68
5053;BME280;2545;50.892;5.740;2023-03-31T10:52:43;56259.16;;;-142.21;81.35
5053;BME280;2545;50.892;5.740;2023-03-31T10:55:32;56253.28;;;-142.21;76.69
5053;BME280;2545;50.892;5.740;2023-03-31T11:06:56;56268.97;;;-142.21;77.77
5053;BME280;2545;50.892;5.740;2023-03-31T11:20:19;56286.63;;;-142.21;86.43
5053;BME280;2545;50.892;5.740;2023-03-31T11:23:15;56282.69;;;-142.21;84.11
5053;BME280;2545;50.892;5.740;2023-03-31T11:26:02;56251.31;;;-142.21;79.04
5053;BME280;2545;50.892;5.740;2023-03-31T11:31:24;56243.47;;;-142.21;75.21
5053;BME280;2545;50.892;5.740;2023-03-31T11:41:50;56298.38;;;-142.21;66.53
5053;BME280;2545;50.892;5.740;2023-03-31T11:44:18;56265.03;;;-142.21;63.29
5053;BME280;2545;50.892;5.740;2023-03-31T11:46:51;56267.00;;;-142.21;64.39
5053;BME280;2545;50.892;5.740;2023-03-31T11:49:30;56263.06;;;-142.21;62.97
5053;BME280;2545;50.892;5.740;2023-03-31T11:52:06;56265.03;;;-142.21;64.37
5053;BME280;2545;50.892;5.740;2023-03-31T11:59:58;56261.13;;;-142.21;63.04
5053;BME280;2545;50.892;5.740;2023-03-31T12:02:39;56261.13;;;-142.21;66.37
5053;BME280;2545;50.892;5.740;2023-03-31T12:05:09;56227.78;;;-142.21;67.25
5053;BME280;2545;50.892;5.740;2023-03-31T12:07:43;56241.50;;;-142.21;66.69
5053;BME280;2545;50.892;5.740;2023-03-31T12:10:20;56280.72;;;-142.21;64.57
5053;BME280;2545;50.892;5.740;2023-03-31T12:12:54;56288.56;;;-142.21;63.46
5053;BME280;2545;50.892;5.740;2023-03-31T12:15:25;56208.16;;;-142.21;63.58
5053;BME280;2545;50.892;5.740;2023-03-31T12:18:07;56259.16;;;-142.21;61.45
5053;BME280;2545;50.892;5.740;2023-03-31T12:20:38;56241.50;;;-142.21;60.65
5053;BME280;2545;50.892;5.740;2023-03-31T12:23:11;56245.44;;;-142.21;57.34
5053;BME280;2545;50.892;5.740;2023-03-31T12:25:56;56247.38;;;-142.21;56.86
5053;BME280;2545;50.892;5.740;2023-03-31T12:28:26;56241.50;;;-142.21;56.61
5053;BME280;2545;50.892;5.740;2023-03-31T12:30:54;56304.25;;;-142.21;55.72
5053;BME280;2545;50.892;5.740;2023-03-31T12:47:34;56204.25;;;-142.21;53.55
5053;BME280;2545;50.892;5.740;2023-03-31T13:01:22;56245.44;;;-142.21;56.96
5053;BME280;2545;50.892;5.740;2023-03-31T13:08:57;56261.13;;;-142.21;55.24
5053;BME280;2545;50.892;5.740;2023-03-31T13:14:00;56247.38;;;-142.21;54.61
5053;BME280;2545;50.892;5.740;2023-03-31T13:16:31;56249.34;;;-142.21;54.35
5053;BME280;2545;50.892;5.740;2023-03-31T13:18:57;56214.06;;;-142.21;54.13
5053;BME280;2545;50.892;5.740;2023-03-31T13:21:23;56204.25;;;-142.21;54.58
5053;BME280;2545;50.892;5.740;2023-03-31T13:23:49;56190.53;;;-142.21;54.79
5053;BME280;2545;50.892;5.740;2023-03-31T13:26:35;56241.50;;;-142.21;54.96
5053;BME280;2545;50.892;5.740;2023-03-31T13:29:18;56241.50;;;-142.21;56.32
5053;BME280;2545;50.892;5.740;2023-03-31T13:34:50;56278.78;;;-142.21;56.04
5053;BME280;2545;50.892;5.740;2023-03-31T13:40:54;56270.91;;;-142.21;57.39
5053;BME280;2545;50.892;5.740;2023-03-31T13:52:03;56276.81;;;-142.21;74.41
5053;BME280;2545;50.892;5.740;2023-03-31T13:54:38;56296.41;;;-142.21;81.18
5053;BME280;2545;50.892;5.740;2023-03-31T14:11:21;56276.81;;;-142.21;100.00
5053;BME280;2545;50.892;5.740;2023-03-31T14:14:00;56253.28;;;-142.21;100.00
5053;BME280;2545;50.892;5.740;2023-03-31T14:16:27;56263.06;;;-142.21;100.00
5053;BME280;2545;50.892;5.740;2023-03-31T14:19:03;56306.22;;;-142.21;100.00
5053;BME280;2545;50.892;5.740;2023-03-31T14:22:11;56280.72;;;-142.21;100.00
5053;BME280;2545;50.892;5.740;2023-03-31T14:25:10;56304.25;;;-142.21;100.00
5053;BME280;2545;50.892;5.740;2023-03-31T14:28:03;56308.19;;;-142.21;100.00
5053;BME280;2545;50.892;5.740;2023-03-31T14:30:49;56304.25;;;-142.21;100.00
5053;BME280;2545;50.892;5.740;2023-03-31T14:33:47;56241.50;;;-142.21;100.00
5053;BME280;2545;50.892;5.740;2023-03-31T14:38:54;56288.56;;;-142.21;100.00
5053;BME280;2545;50.892;5.740;2023-03-31T14:41:25;56292.50;;;-142.21;100.00
5053;BME280;2545;50.892;5.740;2023-03-31T14:44:03;56304.25;;;-142.21;100.00
5053;BME280;2545;50.892;5.740;2023-03-31T14:46:32;56259.16;;;-142.21;100.00
5053;BME280;2545;50.892;5.740;2023-03-31T14:49:11;56304.25;;;-142.21;100.00
5053;BME280;2545;50.892;5.740;2023-03-31T14:51:42;56310.13;;;-142.21;100.00
5053;BME280;2545;50.892;5.740;2023-03-31T14:54:14;56302.28;;;-142.21;100.00
5053;BME280;2545;50.892;5.740;2023-03-31T14:56:41;56255.22;;;-142.21;100.00
5053;BME280;2545;50.892;5.740;2023-03-31T14:59:07;56268.97;;;-142.21;100.00
5053;BME280;2545;50.892;5.740;2023-03-31T15:01:34;56294.47;;;-142.21;100.00
5053;BME280;2545;50.892;5.740;2023-03-31T15:04:12;56294.47;;;-142.21;99.05
5053;BME280;2545;50.892;5.740;2023-03-31T15:06:44;56282.69;;;-142.21;99.94
5053;BME280;2545;50.892;5.740;2023-03-31T15:09:26;56282.69;;;-142.21;95.63
5053;BME280;2545;50.892;5.740;2023-03-31T15:11:58;56304.25;;;-142.21;94.96
5053;BME280;2545;50.892;5.740;2023-03-31T15:14:29;56272.88;;;-142.21;95.16
5053;BME280;2545;50.892;5.740;2023-03-31T15:16:55;56310.13;;;-142.21;94.80
5053;BME280;2545;50.892;5.740;2023-03-31T15:19:22;56294.47;;;-142.21;92.43
5053;BME280;2545;50.892;5.740;2023-03-31T15:22:01;56286.63;;;-142.21;95.03
5053;BME280;2545;50.892;5.740;2023-03-31T15:24:28;56267.00;;;-142.21;92.43
5053;BME280;2545;50.892;5.740;2023-03-31T15:27:01;56280.72;;;-142.21;93.23
5053;BME280;2545;50.892;5.740;2023-03-31T15:29:37;56314.06;;;-142.21;94.83
5053;BME280;2545;50.892;5.740;2023-03-31T15:32:11;56284.66;;;-142.21;94.27
5053;BME280;2545;50.892;5.740;2023-03-31T15:34:38;56288.56;;;-142.21;95.71
5053;BME280;2545;50.892;5.740;2023-03-31T15:37:05;56310.13;;;-142.21;91.04
5053;BME280;2545;50.892;5.740;2023-03-31T15:39:31;56306.22;;;-142.21;95.76
5053;BME280;2545;50.892;5.740;2023-03-31T15:42:00;56306.22;;;-142.21;92.29
5053;BME280;2545;50.892;5.740;2023-03-31T15:46:59;56296.41;;;-142.21;92.02